sensor_id;sensor_type;location;lat;lon;timestamp;P1;durP1;ratioP1;P2;durP2;ratioP2
68178;SDS011;54998;42.656;23.382;2022-12-10T00:01:45;17.42;;;6.53;;
68178;SDS011;54998;42.656;23.382;2022-12-10T00:04:12;17.20;;;5.97;;
68178;SDS011;54998;42.656;23.382;2022-12-10T00:06:38;20.05;;;7.40;;
68178;SDS011;54998;42.656;23.382;2022-12-10T00:09:06;15.18;;;6.43;;
68178;SDS011;54998;42.656;23.382;2022-12-10T00:11:33;20.63;;;7.07;;
68178;SDS011;54998;42.656;23.382;2022-12-10T00:13:59;18.80;;;6.82;;
68178;SDS011;54998;42.656;23.382;2022-12-10T00:16:25;22.45;;;7.22;;
68178;SDS011;54998;42.656;23.382;2022-12-10T00:18:52;16.92;;;6.53;;
68178;SDS011;54998;42.656;23.382;2022-12-10T00:21:19;19.13;;;6.50;;
68178;SDS011;54998;42.656;23.382;2022-12-10T00:23:46;16.08;;;6.35;;
68178;SDS011;54998;42.656;23.382;2022-12-10T00:26:14;18.38;;;7.80;;
68178;SDS011;54998;42.656;23.382;2022-12-10T00:28:47;9.52;;;4.60;;
68178;SDS011;54998;42.656;23.382;2022-12-10T00:31:18;15.32;;;5.65;;
68178;SDS011;54998;42.656;23.382;2022-12-10T00:33:43;17.95;;;6.85;;
68178;SDS011;54998;42.656;23.382;2022-12-10T00:36:11;17.45;;;6.82;;
68178;SDS011;54998;42.656;23.382;2022-12-10T00:38:39;14.75;;;5.60;;
68178;SDS011;54998;42.656;23.382;2022-12-10T00:41:05;19.05;;;7.10;;
68178;SDS011;54998;42.656;23.382;2022-12-10T00:43:31;20.60;;;6.60;;
68178;SDS011;54998;42.656;23.382;2022-12-10T00:45:57;14.35;;;6.07;;
68178;SDS011;54998;42.656;23.382;2022-12-10T00:48:23;15.85;;;6.13;;
68178;SDS011;54998;42.656;23.382;2022-12-10T00:50:58;18.27;;;7.10;;
68178;SDS011;54998;42.656;23.382;2022-12-10T00:53:27;21.05;;;7.00;;
68178;SDS011;54998;42.656;23.382;2022-12-10T00:58:19;17.75;;;6.35;;
68178;SDS011;54998;42.656;23.382;2022-12-10T01:00:46;17.67;;;6.82;;
68178;SDS011;54998;42.656;23.382;2022-12-10T01:03:12;17.63;;;7.07;;
68178;SDS011;54998;42.656;23.382;2022-12-10T01:05:37;15.27;;;6.35;;
68178;SDS011;54998;42.656;23.382;2022-12-10T01:08:02;20.60;;;6.53;;
68178;SDS011;54998;42.656;23.382;2022-12-10T01:10:28;15.75;;;6.65;;
68178;SDS011;54998;42.656;23.382;2022-12-10T01:12:53;16.20;;;6.20;;
68178;SDS011;54998;42.656;23.382;2022-12-10T01:15:19;18.63;;;5.60;;
68178;SDS011;54998;42.656;23.382;2022-12-10T01:17:45;14.05;;;6.05;;
68178;SDS011;54998;42.656;23.382;2022-12-10T01:20:11;15.32;;;6.53;;
68178;SDS011;54998;42.656;23.382;2022-12-10T01:22:37;14.77;;;5.88;;
68178;SDS011;54998;42.656;23.382;2022-12-10T01:25:02;15.32;;;6.88;;
68178;SDS011;54998;42.656;23.382;2022-12-10T01:27:28;13.93;;;5.72;;
68178;SDS011;54998;42.656;23.382;2022-12-10T01:29:54;14.77;;;6.53;;
68178;SDS011;54998;42.656;23.382;2022-12-10T01:32:19;18.48;;;6.05;;
68178;SDS011;54998;42.656;23.382;2022-12-10T01:34:44;15.02;;;5.90;;
68178;SDS011;54998;42.656;23.382;2022-12-10T01:37:10;14.18;;;5.95;;
68178;SDS011;54998;42.656;23.382;2022-12-10T01:39:36;20.33;;;7.32;;
68178;SDS011;54998;42.656;23.382;2022-12-10T01:42:02;13.23;;;5.70;;
68178;SDS011;54998;42.656;23.382;2022-12-10T01:46:57;17.63;;;5.55;;
68178;SDS011;54998;42.656;23.382;2022-12-10T01:51:56;16.95;;;6.53;;
68178;SDS011;54998;42.656;23.382;2022-12-10T01:54:25;12.15;;;5.10;;
68178;SDS011;54998;42.656;23.382;2022-12-10T01:56:54;13.32;;;5.45;;
68178;SDS011;54998;42.656;23.382;2022-12-10T01:59:24;16.58;;;6.07;;
68178;SDS011;54998;42.656;23.382;2022-12-10T02:15:12;16.10;;;5.40;;
68178;SDS011;54998;42.656;23.382;2022-12-10T02:17:43;13.85;;;5.25;;
68178;SDS011;54998;42.656;23.382;2022-12-10T02:22:48;15.73;;;5.15;;
68178;SDS011;54998;42.656;23.382;2022-12-10T02:25:17;23.33;;;5.28;;
68178;SDS011;54998;42.656;23.382;2022-12-10T02:28:47;14.32;;;4.97;;
68178;SDS011;54998;42.656;23.382;2022-12-10T02:30:51;11.43;;;5.80;;
68178;SDS011;54998;42.656;23.382;2022-12-10T02:33:18;12.23;;;5.60;;
68178;SDS011;54998;42.656;23.382;2022-12-10T02:35:47;13.30;;;4.45;;
68178;SDS011;54998;42.656;23.382;2022-12-10T02:38:17;16.95;;;6.18;;
68178;SDS011;54998;42.656;23.382;2022-12-10T02:40:50;14.25;;;4.90;;
68178;SDS011;54998;42.656;23.382;2022-12-10T02:43:22;15.73;;;5.35;;
68178;SDS011;54998;42.656;23.382;2022-12-10T02:45:49;14.15;;;5.63;;
68178;SDS011;54998;42.656;23.382;2022-12-10T02:48:15;12.98;;;5.07;;
68178;SDS011;54998;42.656;23.382;2022-12-10T02:50:43;10.50;;;4.70;;
68178;SDS011;54998;42.656;23.382;2022-12-10T02:53:08;16.90;;;5.68;;
68178;SDS011;54998;42.656;23.382;2022-12-10T02:58:20;15.50;;;4.80;;
68178;SDS011;54998;42.656;23.382;2022-12-10T03:00:50;15.13;;;5.25;;
68178;SDS011;54998;42.656;23.382;2022-12-10T03:03:41;12.45;;;4.63;;
68178;SDS011;54998;42.656;23.382;2022-12-10T03:11:49;18.20;;;4.88;;
68178;SDS011;54998;42.656;23.382;2022-12-10T03:14:35;13.20;;;4.88;;
68178;SDS011;54998;42.656;23.382;2022-12-10T03:17:02;13.52;;;5.30;;
68178;SDS011;54998;42.656;23.382;2022-12-10T03:19:37;10.80;;;5.13;;
68178;SDS011;54998;42.656;23.382;2022-12-10T03:22:06;12.60;;;5.50;;
68178;SDS011;54998;42.656;23.382;2022-12-10T03:24:33;13.27;;;5.28;;
68178;SDS011;54998;42.656;23.382;2022-12-10T03:27:00;11.07;;;4.88;;
68178;SDS011;54998;42.656;23.382;2022-12-10T03:29:39;11.77;;;4.72;;
68178;SDS011;54998;42.656;23.382;2022-12-10T03:32:10;15.52;;;5.70;;
68178;SDS011;54998;42.656;23.382;2022-12-10T03:34:36;11.90;;;5.20;;
68178;SDS011;54998;42.656;23.382;2022-12-10T03:37:03;12.95;;;4.90;;
68178;SDS011;54998;42.656;23.382;2022-12-10T03:39:29;11.10;;;4.95;;
68178;SDS011;54998;42.656;23.382;2022-12-10T03:41:55;14.07;;;5.30;;
68178;SDS011;54998;42.656;23.382;2022-12-10T03:44:28;14.32;;;5.68;;
68178;SDS011;54998;42.656;23.382;2022-12-10T03:47:01;12.07;;;4.35;;
68178;SDS011;54998;42.656;23.382;2022-12-10T03:49:29;10.60;;;4.97;;
68178;SDS011;54998;42.656;23.382;2022-12-10T03:51:54;13.50;;;4.65;;
68178;SDS011;54998;42.656;23.382;2022-12-10T03:54:20;14.32;;;4.47;;
68178;SDS011;54998;42.656;23.382;2022-12-10T03:56:46;11.15;;;4.10;;
68178;SDS011;54998;42.656;23.382;2022-12-10T03:59:11;11.07;;;4.43;;
68178;SDS011;54998;42.656;23.382;2022-12-10T04:01:37;11.90;;;4.45;;
68178;SDS011;54998;42.656;23.382;2022-12-10T04:04:03;11.00;;;4.20;;
68178;SDS011;54998;42.656;23.382;2022-12-10T04:06:29;10.95;;;4.75;;
68178;SDS011;54998;42.656;23.382;2022-12-10T04:08:55;16.30;;;4.63;;
68178;SDS011;54998;42.656;23.382;2022-12-10T04:11:20;12.27;;;4.47;;
68178;SDS011;54998;42.656;23.382;2022-12-10T04:13:46;9.35;;;4.45;;
68178;SDS011;54998;42.656;23.382;2022-12-10T04:16:30;12.73;;;5.45;;
68178;SDS011;54998;42.656;23.382;2022-12-10T04:19:01;11.88;;;4.18;;
68178;SDS011;54998;42.656;23.382;2022-12-10T04:21:30;11.55;;;4.22;;
68178;SDS011;54998;42.656;23.382;2022-12-10T04:24:16;11.10;;;4.18;;
68178;SDS011;54998;42.656;23.382;2022-12-10T04:27:03;9.27;;;4.30;;
68178;SDS011;54998;42.656;23.382;2022-12-10T04:29:31;10.93;;;4.90;;
68178;SDS011;54998;42.656;23.382;2022-12-10T04:31:57;11.40;;;4.63;;
68178;SDS011;54998;42.656;23.382;2022-12-10T04:34:23;13.75;;;4.75;;
68178;SDS011;54998;42.656;23.382;2022-12-10T04:36:49;11.65;;;4.57;;
68178;SDS011;54998;42.656;23.382;2022-12-10T04:39:15;13.70;;;5.05;;
68178;SDS011;54998;42.656;23.382;2022-12-10T04:41:42;14.40;;;4.75;;
68178;SDS011;54998;42.656;23.382;2022-12-10T04:44:09;13.20;;;5.60;;
68178;SDS011;54998;42.656;23.382;2022-12-10T04:46:35;15.98;;;5.40;;
68178;SDS011;54998;42.656;23.382;2022-12-10T04:49:00;14.10;;;6.00;;
68178;SDS011;54998;42.656;23.382;2022-12-10T04:51:26;15.80;;;5.78;;
68178;SDS011;54998;42.656;23.382;2022-12-10T04:53:52;14.07;;;5.45;;
68178;SDS011;54998;42.656;23.382;2022-12-10T04:56:17;19.85;;;5.82;;
68178;SDS011;54998;42.656;23.382;2022-12-10T04:58:42;13.65;;;6.03;;
68178;SDS011;54998;42.656;23.382;2022-12-10T05:01:09;18.65;;;5.93;;
68178;SDS011;54998;42.656;23.382;2022-12-10T05:03:35;13.73;;;5.70;;
68178;SDS011;54998;42.656;23.382;2022-12-10T05:06:01;17.23;;;5.32;;
68178;SDS011;54998;42.656;23.382;2022-12-10T05:08:28;17.33;;;5.75;;
68178;SDS011;54998;42.656;23.382;2022-12-10T05:10:54;14.05;;;5.22;;
68178;SDS011;54998;42.656;23.382;2022-12-10T05:13:19;15.27;;;6.00;;
68178;SDS011;54998;42.656;23.382;2022-12-10T05:15:45;18.67;;;6.00;;
68178;SDS011;54998;42.656;23.382;2022-12-10T05:18:10;13.07;;;5.80;;
68178;SDS011;54998;42.656;23.382;2022-12-10T05:20:35;15.10;;;6.28;;
68178;SDS011;54998;42.656;23.382;2022-12-10T05:23:01;15.13;;;5.78;;
68178;SDS011;54998;42.656;23.382;2022-12-10T05:25:44;11.27;;;5.28;;
68178;SDS011;54998;42.656;23.382;2022-12-10T05:28:20;13.85;;;5.43;;
68178;SDS011;54998;42.656;23.382;2022-12-10T05:30:46;14.95;;;5.80;;
68178;SDS011;54998;42.656;23.382;2022-12-10T05:33:11;15.77;;;5.95;;
68178;SDS011;54998;42.656;23.382;2022-12-10T05:35:36;16.80;;;6.75;;
68178;SDS011;54998;42.656;23.382;2022-12-10T05:38:02;16.00;;;6.28;;
68178;SDS011;54998;42.656;23.382;2022-12-10T05:40:27;20.20;;;7.00;;
68178;SDS011;54998;42.656;23.382;2022-12-10T05:42:53;18.25;;;6.97;;
68178;SDS011;54998;42.656;23.382;2022-12-10T05:45:18;14.43;;;5.80;;
68178;SDS011;54998;42.656;23.382;2022-12-10T05:47:43;17.35;;;5.90;;
68178;SDS011;54998;42.656;23.382;2022-12-10T05:50:09;16.45;;;7.80;;
68178;SDS011;54998;42.656;23.382;2022-12-10T05:52:34;14.88;;;5.70;;
68178;SDS011;54998;42.656;23.382;2022-12-10T05:54:59;13.27;;;5.60;;
68178;SDS011;54998;42.656;23.382;2022-12-10T05:57:25;14.77;;;6.32;;
68178;SDS011;54998;42.656;23.382;2022-12-10T05:59:50;14.98;;;6.55;;
68178;SDS011;54998;42.656;23.382;2022-12-10T06:02:15;13.30;;;6.63;;
68178;SDS011;54998;42.656;23.382;2022-12-10T06:04:41;14.23;;;6.45;;
68178;SDS011;54998;42.656;23.382;2022-12-10T06:07:06;12.60;;;6.03;;
68178;SDS011;54998;42.656;23.382;2022-12-10T06:09:32;16.05;;;6.20;;
68178;SDS011;54998;42.656;23.382;2022-12-10T06:11:57;14.25;;;5.70;;
68178;SDS011;54998;42.656;23.382;2022-12-10T06:14:23;18.48;;;6.70;;
68178;SDS011;54998;42.656;23.382;2022-12-10T06:16:48;14.50;;;6.85;;
68178;SDS011;54998;42.656;23.382;2022-12-10T06:19:13;14.63;;;6.03;;
68178;SDS011;54998;42.656;23.382;2022-12-10T06:21:39;17.77;;;7.47;;
68178;SDS011;54998;42.656;23.382;2022-12-10T06:24:04;13.93;;;6.10;;
68178;SDS011;54998;42.656;23.382;2022-12-10T06:26:30;16.55;;;6.68;;
68178;SDS011;54998;42.656;23.382;2022-12-10T06:28:55;15.38;;;6.88;;
68178;SDS011;54998;42.656;23.382;2022-12-10T06:31:21;13.88;;;6.28;;
68178;SDS011;54998;42.656;23.382;2022-12-10T06:33:47;17.38;;;7.88;;
68178;SDS011;54998;42.656;23.382;2022-12-10T06:36:13;19.55;;;8.00;;
68178;SDS011;54998;42.656;23.382;2022-12-10T06:38:40;19.50;;;7.63;;
68178;SDS011;54998;42.656;23.382;2022-12-10T06:41:07;14.50;;;6.95;;
68178;SDS011;54998;42.656;23.382;2022-12-10T06:43:35;17.65;;;7.47;;
68178;SDS011;54998;42.656;23.382;2022-12-10T06:46:07;22.73;;;8.50;;
68178;SDS011;54998;42.656;23.382;2022-12-10T06:50:59;17.23;;;7.40;;
68178;SDS011;54998;42.656;23.382;2022-12-10T06:53:25;14.85;;;7.57;;
68178;SDS011;54998;42.656;23.382;2022-12-10T06:55:50;18.52;;;7.50;;
68178;SDS011;54998;42.656;23.382;2022-12-10T06:58:15;22.50;;;8.18;;
68178;SDS011;54998;42.656;23.382;2022-12-10T07:00:41;20.33;;;9.55;;
68178;SDS011;54998;42.656;23.382;2022-12-10T07:03:06;19.83;;;8.85;;
68178;SDS011;54998;42.656;23.382;2022-12-10T07:05:32;16.08;;;8.00;;
68178;SDS011;54998;42.656;23.382;2022-12-10T07:07:57;19.33;;;7.18;;
68178;SDS011;54998;42.656;23.382;2022-12-10T07:10:23;18.10;;;7.45;;
68178;SDS011;54998;42.656;23.382;2022-12-10T07:12:49;18.25;;;7.38;;
68178;SDS011;54998;42.656;23.382;2022-12-10T07:15:14;24.77;;;7.60;;
68178;SDS011;54998;42.656;23.382;2022-12-10T07:17:40;18.55;;;7.47;;
68178;SDS011;54998;42.656;23.382;2022-12-10T07:20:05;18.23;;;7.80;;
68178;SDS011;54998;42.656;23.382;2022-12-10T07:22:31;18.98;;;8.75;;
68178;SDS011;54998;42.656;23.382;2022-12-10T07:24:57;20.58;;;8.95;;
68178;SDS011;54998;42.656;23.382;2022-12-10T07:27:22;21.90;;;8.45;;
68178;SDS011;54998;42.656;23.382;2022-12-10T07:29:47;25.27;;;10.52;;
68178;SDS011;54998;42.656;23.382;2022-12-10T07:32:13;21.02;;;8.73;;
68178;SDS011;54998;42.656;23.382;2022-12-10T07:34:38;22.33;;;9.57;;
68178;SDS011;54998;42.656;23.382;2022-12-10T07:37:03;20.05;;;9.43;;
68178;SDS011;54998;42.656;23.382;2022-12-10T07:39:29;20.65;;;9.27;;
68178;SDS011;54998;42.656;23.382;2022-12-10T07:41:54;20.08;;;9.00;;
68178;SDS011;54998;42.656;23.382;2022-12-10T07:44:21;19.00;;;9.35;;
68178;SDS011;54998;42.656;23.382;2022-12-10T07:46:50;18.10;;;8.75;;
68178;SDS011;54998;42.656;23.382;2022-12-10T07:49:16;18.50;;;8.40;;
68178;SDS011;54998;42.656;23.382;2022-12-10T07:51:48;17.75;;;7.65;;
68178;SDS011;54998;42.656;23.382;2022-12-10T07:54:15;17.95;;;8.38;;
68178;SDS011;54998;42.656;23.382;2022-12-10T07:56:41;19.38;;;9.57;;
68178;SDS011;54998;42.656;23.382;2022-12-10T07:59:07;44.53;;;21.90;;
68178;SDS011;54998;42.656;23.382;2022-12-10T08:01:33;19.92;;;9.68;;
68178;SDS011;54998;42.656;23.382;2022-12-10T08:03:59;21.88;;;9.10;;
68178;SDS011;54998;42.656;23.382;2022-12-10T08:06:25;19.02;;;9.07;;
68178;SDS011;54998;42.656;23.382;2022-12-10T08:08:52;19.75;;;9.27;;
68178;SDS011;54998;42.656;23.382;2022-12-10T08:11:18;20.23;;;9.23;;
68178;SDS011;54998;42.656;23.382;2022-12-10T08:13:45;24.88;;;9.85;;
68178;SDS011;54998;42.656;23.382;2022-12-10T08:16:15;17.77;;;9.15;;
68178;SDS011;54998;42.656;23.382;2022-12-10T08:18:43;24.60;;;10.50;;
68178;SDS011;54998;42.656;23.382;2022-12-10T08:21:16;20.40;;;9.32;;
68178;SDS011;54998;42.656;23.382;2022-12-10T08:23:43;18.27;;;8.50;;
68178;SDS011;54998;42.656;23.382;2022-12-10T08:26:10;21.48;;;10.02;;
68178;SDS011;54998;42.656;23.382;2022-12-10T08:28:38;23.40;;;9.88;;
68178;SDS011;54998;42.656;23.382;2022-12-10T08:31:04;25.50;;;9.85;;
68178;SDS011;54998;42.656;23.382;2022-12-10T08:33:35;17.50;;;8.85;;
68178;SDS011;54998;42.656;23.382;2022-12-10T08:36:01;21.63;;;9.07;;
68178;SDS011;54998;42.656;23.382;2022-12-10T08:38:28;21.38;;;9.43;;
68178;SDS011;54998;42.656;23.382;2022-12-10T08:40:54;18.45;;;9.20;;
68178;SDS011;54998;42.656;23.382;2022-12-10T08:43:19;22.48;;;9.23;;
68178;SDS011;54998;42.656;23.382;2022-12-10T08:45:45;18.50;;;9.20;;
68178;SDS011;54998;42.656;23.382;2022-12-10T08:48:10;21.73;;;9.75;;
68178;SDS011;54998;42.656;23.382;2022-12-10T08:50:36;21.92;;;9.13;;
68178;SDS011;54998;42.656;23.382;2022-12-10T08:53:02;20.33;;;9.25;;
68178;SDS011;54998;42.656;23.382;2022-12-10T08:55:28;19.92;;;9.15;;
68178;SDS011;54998;42.656;23.382;2022-12-10T08:57:53;23.63;;;10.15;;
68178;SDS011;54998;42.656;23.382;2022-12-10T09:00:18;18.95;;;9.30;;
68178;SDS011;54998;42.656;23.382;2022-12-10T09:02:44;23.02;;;10.32;;
68178;SDS011;54998;42.656;23.382;2022-12-10T09:05:10;31.13;;;14.55;;
68178;SDS011;54998;42.656;23.382;2022-12-10T09:07:36;31.30;;;14.00;;
68178;SDS011;54998;42.656;23.382;2022-12-10T09:10:01;27.90;;;13.07;;
68178;SDS011;54998;42.656;23.382;2022-12-10T09:12:27;27.20;;;13.02;;
68178;SDS011;54998;42.656;23.382;2022-12-10T09:14:53;25.88;;;12.82;;
68178;SDS011;54998;42.656;23.382;2022-12-10T09:17:18;26.45;;;11.63;;
68178;SDS011;54998;42.656;23.382;2022-12-10T09:19:43;23.25;;;12.02;;
68178;SDS011;54998;42.656;23.382;2022-12-10T09:22:09;23.38;;;11.63;;
68178;SDS011;54998;42.656;23.382;2022-12-10T09:24:34;27.63;;;13.00;;
68178;SDS011;54998;42.656;23.382;2022-12-10T09:27:02;27.05;;;13.38;;
68178;SDS011;54998;42.656;23.382;2022-12-10T09:29:28;23.60;;;12.90;;
68178;SDS011;54998;42.656;23.382;2022-12-10T09:31:54;23.20;;;11.45;;
68178;SDS011;54998;42.656;23.382;2022-12-10T09:34:20;20.63;;;10.25;;
68178;SDS011;54998;42.656;23.382;2022-12-10T09:36:46;24.77;;;11.70;;
68178;SDS011;54998;42.656;23.382;2022-12-10T09:39:11;22.15;;;11.55;;
68178;SDS011;54998;42.656;23.382;2022-12-10T09:46:51;27.35;;;12.80;;
68178;SDS011;54998;42.656;23.382;2022-12-10T09:51:46;24.92;;;13.20;;
68178;SDS011;54998;42.656;23.382;2022-12-10T09:54:24;20.08;;;11.20;;
68178;SDS011;54998;42.656;23.382;2022-12-10T09:56:56;23.23;;;11.07;;
68178;SDS011;54998;42.656;23.382;2022-12-10T10:04:41;21.20;;;11.63;;
68178;SDS011;54998;42.656;23.382;2022-12-10T10:07:07;22.40;;;11.75;;
68178;SDS011;54998;42.656;23.382;2022-12-10T10:09:44;25.17;;;11.77;;
68178;SDS011;54998;42.656;23.382;2022-12-10T10:12:13;20.95;;;10.40;;
68178;SDS011;54998;42.656;23.382;2022-12-10T10:14:39;18.63;;;10.18;;
68178;SDS011;54998;42.656;23.382;2022-12-10T10:17:09;14.88;;;7.90;;
68178;SDS011;54998;42.656;23.382;2022-12-10T10:19:45;15.90;;;8.30;;
68178;SDS011;54998;42.656;23.382;2022-12-10T10:22:11;17.50;;;9.57;;
68178;SDS011;54998;42.656;23.382;2022-12-10T10:24:38;16.35;;;9.02;;
68178;SDS011;54998;42.656;23.382;2022-12-10T10:27:11;16.23;;;9.10;;
68178;SDS011;54998;42.656;23.382;2022-12-10T10:29:43;22.60;;;12.15;;
68178;SDS011;54998;42.656;23.382;2022-12-10T10:32:11;21.38;;;11.70;;
68178;SDS011;54998;42.656;23.382;2022-12-10T10:34:39;21.85;;;12.13;;
68178;SDS011;54998;42.656;23.382;2022-12-10T10:37:05;23.42;;;12.98;;
68178;SDS011;54998;42.656;23.382;2022-12-10T10:39:32;18.90;;;11.52;;
68178;SDS011;54998;42.656;23.382;2022-12-10T10:42:08;18.33;;;11.13;;
68178;SDS011;54998;42.656;23.382;2022-12-10T10:44:35;18.80;;;10.60;;
68178;SDS011;54998;42.656;23.382;2022-12-10T10:47:03;18.58;;;11.50;;
68178;SDS011;54998;42.656;23.382;2022-12-10T10:49:58;20.52;;;11.55;;
68178;SDS011;54998;42.656;23.382;2022-12-10T10:52:28;18.85;;;12.75;;
68178;SDS011;54998;42.656;23.382;2022-12-10T10:54:55;17.15;;;11.02;;
68178;SDS011;54998;42.656;23.382;2022-12-10T10:59:54;17.80;;;10.18;;
68178;SDS011;54998;42.656;23.382;2022-12-10T11:02:27;22.80;;;11.48;;
68178;SDS011;54998;42.656;23.382;2022-12-10T11:05:01;22.02;;;11.65;;
68178;SDS011;54998;42.656;23.382;2022-12-10T11:07:40;17.38;;;9.20;;
68178;SDS011;54998;42.656;23.382;2022-12-10T11:10:16;23.15;;;13.52;;
68178;SDS011;54998;42.656;23.382;2022-12-10T11:12:54;20.17;;;9.90;;
68178;SDS011;54998;42.656;23.382;2022-12-10T11:17:47;18.05;;;9.50;;
68178;SDS011;54998;42.656;23.382;2022-12-10T11:20:21;16.98;;;9.32;;
68178;SDS011;54998;42.656;23.382;2022-12-10T11:23:00;21.85;;;9.57;;
68178;SDS011;54998;42.656;23.382;2022-12-10T11:30:38;11.93;;;6.30;;
68178;SDS011;54998;42.656;23.382;2022-12-10T11:33:31;11.13;;;4.90;;
68178;SDS011;54998;42.656;23.382;2022-12-10T11:41:36;8.88;;;4.75;;
68178;SDS011;54998;42.656;23.382;2022-12-10T11:47:02;8.13;;;4.25;;
68178;SDS011;54998;42.656;23.382;2022-12-10T11:52:29;9.65;;;4.28;;
68178;SDS011;54998;42.656;23.382;2022-12-10T11:55:01;10.50;;;4.47;;
68178;SDS011;54998;42.656;23.382;2022-12-10T12:00:23;8.77;;;4.22;;
68178;SDS011;54998;42.656;23.382;2022-12-10T12:14:21;13.82;;;5.85;;
68178;SDS011;54998;42.656;23.382;2022-12-10T12:19:51;16.20;;;6.38;;
68178;SDS011;54998;42.656;23.382;2022-12-10T12:24:50;14.02;;;7.13;;
68178;SDS011;54998;42.656;23.382;2022-12-10T12:27:33;15.23;;;7.05;;
68178;SDS011;54998;42.656;23.382;2022-12-10T12:41:00;13.05;;;6.68;;
68178;SDS011;54998;42.656;23.382;2022-12-10T12:44:24;16.25;;;6.60;;
68178;SDS011;54998;42.656;23.382;2022-12-10T12:46:32;20.20;;;7.18;;
68178;SDS011;54998;42.656;23.382;2022-12-10T12:51:38;13.15;;;5.63;;
68178;SDS011;54998;42.656;23.382;2022-12-10T12:54:13;16.83;;;6.05;;
68178;SDS011;54998;42.656;23.382;2022-12-10T12:56:45;17.05;;;7.38;;
68178;SDS011;54998;42.656;23.382;2022-12-10T13:05:29;18.40;;;8.40;;
68178;SDS011;54998;42.656;23.382;2022-12-10T13:11:00;18.02;;;8.93;;
68178;SDS011;54998;42.656;23.382;2022-12-10T13:13:41;17.60;;;9.73;;
68178;SDS011;54998;42.656;23.382;2022-12-10T14:48:29;23.40;;;10.38;;
68178;SDS011;54998;42.656;23.382;2022-12-10T14:50:56;28.08;;;13.88;;
68178;SDS011;54998;42.656;23.382;2022-12-10T14:53:28;31.80;;;11.70;;
68178;SDS011;54998;42.656;23.382;2022-12-10T14:55:57;29.02;;;11.20;;
68178;SDS011;54998;42.656;23.382;2022-12-10T14:58:47;23.38;;;10.50;;
68178;SDS011;54998;42.656;23.382;2022-12-10T15:01:36;22.58;;;8.35;;
68178;SDS011;54998;42.656;23.382;2022-12-10T15:04:05;20.70;;;8.00;;
68178;SDS011;54998;42.656;23.382;2022-12-10T15:06:36;26.25;;;8.55;;
68178;SDS011;54998;42.656;23.382;2022-12-10T15:09:03;23.13;;;8.90;;
68178;SDS011;54998;42.656;23.382;2022-12-10T15:11:29;21.67;;;8.43;;
68178;SDS011;54998;42.656;23.382;2022-12-10T15:13:56;15.68;;;7.35;;
68178;SDS011;54998;42.656;23.382;2022-12-10T15:16:41;26.95;;;11.40;;
68178;SDS011;54998;42.656;23.382;2022-12-10T15:21:54;19.13;;;7.85;;
68178;SDS011;54998;42.656;23.382;2022-12-10T15:24:36;22.92;;;8.32;;
68178;SDS011;54998;42.656;23.382;2022-12-10T15:30:00;19.60;;;8.02;;
68178;SDS011;54998;42.656;23.382;2022-12-10T15:32:49;18.98;;;9.05;;
68178;SDS011;54998;42.656;23.382;2022-12-10T15:35:15;17.38;;;8.82;;
68178;SDS011;54998;42.656;23.382;2022-12-10T15:37:41;19.05;;;8.98;;
68178;SDS011;54998;42.656;23.382;2022-12-10T15:40:27;23.67;;;7.70;;
68178;SDS011;54998;42.656;23.382;2022-12-10T15:45:41;19.95;;;10.15;;
68178;SDS011;54998;42.656;23.382;2022-12-10T15:48:08;22.00;;;9.30;;
68178;SDS011;54998;42.656;23.382;2022-12-10T15:50:36;23.15;;;10.20;;
68178;SDS011;54998;42.656;23.382;2022-12-10T15:53:03;18.38;;;9.65;;
68178;SDS011;54998;42.656;23.382;2022-12-10T15:55:28;22.80;;;11.70;;
68178;SDS011;54998;42.656;23.382;2022-12-10T15:57:54;29.38;;;15.18;;
68178;SDS011;54998;42.656;23.382;2022-12-10T16:00:23;31.30;;;15.68;;
68178;SDS011;54998;42.656;23.382;2022-12-10T16:02:51;34.08;;;16.35;;
68178;SDS011;54998;42.656;23.382;2022-12-10T16:05:23;30.27;;;15.32;;
68178;SDS011;54998;42.656;23.382;2022-12-10T16:07:50;27.60;;;14.32;;
68178;SDS011;54998;42.656;23.382;2022-12-10T16:10:18;28.60;;;14.52;;
68178;SDS011;54998;42.656;23.382;2022-12-10T16:12:45;24.48;;;13.45;;
68178;SDS011;54998;42.656;23.382;2022-12-10T16:15:18;21.73;;;9.68;;
68178;SDS011;54998;42.656;23.382;2022-12-10T16:17:49;22.83;;;9.73;;
68178;SDS011;54998;42.656;23.382;2022-12-10T16:20:26;14.27;;;7.60;;
68178;SDS011;54998;42.656;23.382;2022-12-10T16:22:53;16.25;;;7.47;;
68178;SDS011;54998;42.656;23.382;2022-12-10T16:25:20;12.90;;;4.75;;
68178;SDS011;54998;42.656;23.382;2022-12-10T16:27:47;11.35;;;5.80;;
68178;SDS011;54998;42.656;23.382;2022-12-10T16:30:20;12.20;;;4.68;;
68178;SDS011;54998;42.656;23.382;2022-12-10T16:32:50;7.68;;;3.45;;
68178;SDS011;54998;42.656;23.382;2022-12-10T16:35:16;8.75;;;3.60;;
68178;SDS011;54998;42.656;23.382;2022-12-10T16:37:45;10.18;;;4.25;;
68178;SDS011;54998;42.656;23.382;2022-12-10T16:40:20;6.30;;;3.42;;
68178;SDS011;54998;42.656;23.382;2022-12-10T16:42:49;9.60;;;3.30;;
68178;SDS011;54998;42.656;23.382;2022-12-10T16:47:46;10.68;;;3.75;;
68178;SDS011;54998;42.656;23.382;2022-12-10T16:50:12;10.13;;;3.80;;
68178;SDS011;54998;42.656;23.382;2022-12-10T16:52:39;11.65;;;3.60;;
68178;SDS011;54998;42.656;23.382;2022-12-10T16:55:06;15.20;;;4.60;;
68178;SDS011;54998;42.656;23.382;2022-12-10T16:57:36;10.00;;;4.20;;
68178;SDS011;54998;42.656;23.382;2022-12-10T17:00:02;13.52;;;7.30;;
68178;SDS011;54998;42.656;23.382;2022-12-10T17:02:28;22.10;;;9.55;;
68178;SDS011;54998;42.656;23.382;2022-12-10T17:04:53;18.10;;;9.13;;
68178;SDS011;54998;42.656;23.382;2022-12-10T17:07:19;18.95;;;8.30;;
68178;SDS011;54998;42.656;23.382;2022-12-10T17:09:44;13.52;;;7.25;;
68178;SDS011;54998;42.656;23.382;2022-12-10T17:12:10;24.27;;;9.85;;
68178;SDS011;54998;42.656;23.382;2022-12-10T17:14:36;10.40;;;4.30;;
68178;SDS011;54998;42.656;23.382;2022-12-10T17:17:05;11.27;;;5.15;;
68178;SDS011;54998;42.656;23.382;2022-12-10T17:22:03;10.52;;;4.15;;
68178;SDS011;54998;42.656;23.382;2022-12-10T17:24:30;14.32;;;4.63;;
68178;SDS011;54998;42.656;23.382;2022-12-10T17:26:57;10.88;;;4.55;;
68178;SDS011;54998;42.656;23.382;2022-12-10T17:29:40;10.30;;;4.50;;
68178;SDS011;54998;42.656;23.382;2022-12-10T17:32:10;11.18;;;4.95;;
68178;SDS011;54998;42.656;23.382;2022-12-10T17:34:38;15.63;;;4.45;;
68178;SDS011;54998;42.656;23.382;2022-12-10T17:37:08;10.57;;;5.00;;
68178;SDS011;54998;42.656;23.382;2022-12-10T17:39:39;8.05;;;3.85;;
68178;SDS011;54998;42.656;23.382;2022-12-10T17:42:05;8.25;;;3.70;;
68178;SDS011;54998;42.656;23.382;2022-12-10T17:44:33;9.68;;;4.03;;
68178;SDS011;54998;42.656;23.382;2022-12-10T17:46:59;10.65;;;4.15;;
68178;SDS011;54998;42.656;23.382;2022-12-10T17:49:24;9.82;;;4.00;;
68178;SDS011;54998;42.656;23.382;2022-12-10T17:51:49;9.50;;;3.55;;
68178;SDS011;54998;42.656;23.382;2022-12-10T17:54:15;10.57;;;3.50;;
68178;SDS011;54998;42.656;23.382;2022-12-10T17:56:40;11.43;;;3.90;;
68178;SDS011;54998;42.656;23.382;2022-12-10T17:59:06;7.22;;;3.20;;
68178;SDS011;54998;42.656;23.382;2022-12-10T18:01:32;11.50;;;4.40;;
68178;SDS011;54998;42.656;23.382;2022-12-10T18:03:58;9.98;;;4.00;;
68178;SDS011;54998;42.656;23.382;2022-12-10T18:06:25;11.52;;;4.25;;